Etusivu
METAR-TAF:

METAR-TAF

Lentoasemat :

Ouargla, Algeria

Leveyspiiri: 31-55N, Pituuspiiri: 005-24E, korkeus merenpinnasta: 141 m

Tämänhetkinen sää

Tämä raportti tehtiin 1 tunti ja 11 minuuttia sitten, kello 10.00 UTC
Tuuli 10 kn etelästä/lounaasta
Lämpötila 21°C
Kosteus 25%
Ilmanpaine 1022 hPa
Näkyvyys 10 km tai enemmän
ei pilviä alle 1500 m:ssä eikä cumulonimbus-pilviä

METAR: DAUU 291000Z 20010KT CAVOK 21/00 Q1022

Aika: 12:11 (11:11 UTC)

Sääennuste

Tämä raportti tehtiin 3 tuntia ja 11 minuuttia sitten, kello 08.00 UTC
Ennuste voimassa 29. päivästä klo 09 UTC - 29. päivään klo 18 UTC
Tuuli 2 kn eri suunnista
Näkyvyys 10 km tai enemmän
ei pilviä alle 1500 m:ssä eikä cumulonimbus-pilviä

TAF: DAUU 290800Z 2909/2918 VRB02KT CAVOK

Säähavainnot ja -ennusteet yli 4000 lentoasemalta (METAR- ja TAF-raportit).

Käytössä olevat sääasemat on merkitty karttaan keltaisilla ja punaisilla pisteillä.

Aseta hiiri pisteen päälle nähdäksesi sääaseman nimen.

Klikkaa sitten nähdäksesi säähavainnot ja -ennusteet.

Kartan vaihtaminen: klikkaa mustalla rastilla varustettuja vihreitä pisteitä, niin voit zoomata sisään; viivalla varustettua vihreää pistettä, niin voit zoomata ulos tai vihreitä nuolia, niin pääset viereisille kartoille.


METAR-TAF: